KCON/CON METAR and TAF weather

Enter ICAO airport designator
Station Type Date Time Source
KCON METAR 2018/01/23 01:51 UTC NOAA

KCON 230151Z AUTO 00000KT 2 1/2SM -FZRA BR OVC008 M02/M04 A3027 RMK AO2 UPB0059E08FZRAB08 SLP255 P0006 I1002 T10221039


Station Type Date Time Source
KCON Decoded METAR 2018/01/23 01:51 UTC NOAA

Concord, Concord Municipal Airport, NH, United States (KCON) 43-11-43N 071-30-04W 103M
Jan 22, 2018 - 08:51 PM EST / 2018.01.23 0151 UTC
Wind: Calm:0
Visibility: 2 1/2 mile(s):0
Sky conditions: overcast
Weather: light freezing rain; mist
Precipitation last hour: 0.06 inches
Temperature: 28.0 F (-2.2 C)
Dew Point: 25.0 F (-3.9 C)
Relative Humidity: 88%
Pressure (altimeter): 30.27 in. Hg (1025 hPa)
ob: KCON 230151Z AUTO 00000KT 2 1/2SM -FZRA BR OVC008 M02/M04 A3027 RMK AO2 UPB0059E08FZRAB08 SLP255 P0006 I1002 T10221039
cycle: 2

Station Type Date Time Source
KCON TAF 2018/01/23 01:30 UTC NOAA

TAF
AMD KCON 230127Z 2301/2324 06004KT 4SM -FZRA BR OVC008
FM231500 14004KT 3SM -SHRA OVC007


Example: see airport list